This is the latest recevied weather packets stored in our database for station/object Waldburg. If no packets are shown the sender has not sent any weather packets the latest 10 day(s).
| Time | Temp. | Humidity | Pressure | Rain* | Wind** | Luminosity | Snow |
|---|---|---|---|---|---|---|---|
| 1777937529 | 10.56° C | 87% | 1009.4 hPa | 0 mm | - | - | - |
| 1777935730 | 10.56° C | 84% | 1009.7 hPa | 0 mm | - | - | - |
| 1777933935 | 11.67° C | 82% | 1010.1 hPa | 0 mm | - | - | - |
| 1777932130 | 11.67° C | 78% | 1010.1 hPa | 0 mm | - | - | - |
| 1777930329 | 12.78° C | 73% | 1010.3 hPa | 0 mm | - | - | - |
| 1777928529 | 13.89° C | 62% | 1010.1 hPa | 0 mm | - | - | - |
| 1777926729 | 15° C | 53% | 1010.1 hPa | 0 mm | - | - | - |
| 1777924929 | 15.56° C | 52% | 1009.9 hPa | 0 mm | - | - | - |
| 1777923129 | 15° C | 55% | 1009.6 hPa | 0 mm | - | - | - |
| 1777921329 | 15.56° C | 53% | 1009.4 hPa | 0 mm | - | - | - |
| 1777919529 | 17.22° C | 46% | 1009.6 hPa | 0 mm | - | - | - |
| 1777917734 | 17.78° C | 50% | 1009.8 hPa | 0 mm | - | - | - |
| 1777915929 | 18.33° C | 48% | 1009.9 hPa | 0 mm | - | - | - |
| 1777914130 | 18.89° C | 45% | 1009.7 hPa | 0 mm | - | - | - |
| 1777912332 | 20° C | 44% | 1009.6 hPa | 0 mm | - | - | - |
| 1777910530 | 20.56° C | 40% | 1009.4 hPa | 0 mm | - | - | - |
| 1777908732 | 21.11° C | 38% | 1009.3 hPa | 0 mm | - | - | - |
| 1777906930 | 21.67° C | 34% | 1009.2 hPa | 0 mm | - | - | - |
| 1777905129 | 21.67° C | 35% | 1009.3 hPa | 0 mm | - | - | - |
| 1777903330 | 22.22° C | 34% | 1009.4 hPa | 0 mm | - | - | - |
| 1777901532 | 22.78° C | 33% | 1009.6 hPa | 0 mm | - | - | - |
| 1777899735 | 23.33° C | 34% | 1009.8 hPa | 0 mm | - | - | - |
| 1777897935 | 23.33° C | 32% | 1010.2 hPa | 0 mm | - | - | - |
| 1777896130 | 22.78° C | 35% | 1010.2 hPa | 0 mm | - | - | - |
| 1777894331 | 22.78° C | 35% | 1010.4 hPa | 0 mm | - | - | - |
* Rain since midnight (hover to see other rain measurements)
** Current wind speed in m/s (hover to see current wind gust speed)